Pagrindinis puslapis
METAR-TAF:

METAR-TAF

Oro uostai :

Woodvale, Anglija

platuma: 53-34-54N, ilguma: 003-03-20W, Aukštis: 11 m

Dabartinis oras

Ataskaita buvo paskelbta 37 minutes, ne 12:20 UTC
Vėjas 11 kt iš Pietų
Temperatūra 6°C
Drėgmė 93%
Slėgis 1014 hPa
Matomumas: 7000 m
Išsisklaidę debesys ne aukštis 1600 ft
Su prošvaistėmis ne aukštis 3000 ft
lietus

METAR: EGOW 191220Z 17011KT 7000 -RA SCT016 BKN030 06/05 Q1014 RMK WHT

Laikas: 12:57 (12:57 UTC)

Prognozė

Ataskaita buvo paskelbta 2 valandos ir 7 minutes, ne 10:50 UTC
Prognozė galioja nuo 19 metu 12 UTC su 19 metu 18 UTC
Vėjas 12 kt iš Pietų/Pietvakarių
Matomumas 10 km arba daugiau
Mažai debesys ne aukštis 2000 ft
Laikinai
nuo 19 metu 12 UTC su 19 metu 18 UTC
Matomumas: 5000 m
Su prošvaistėmis ne aukštis 1500 ft
lietus
Tapsmas
nuo 19 metu 16 UTC su 19 metu 18 UTC
Vėjas 17 kt iš Pietų/Pietvakarių su gūsio iki 27 kt

TAF: EGOW 191050Z 1912/1918 20012KT 9999 FEW020 TEMPO 1912/1918 5000 RA BKN015 BECMG 1916/1918 21017G27KT

Orai ataskaitas ir orų prognozės (METAR, TAF).

turimą stotys yra geltonos ir raudonos taškus žemėlapyje.

Perkelti pele per norėdami pamatyti stoties vardą.

Tada spustelėkite, norėdami matyti oro stebėjimo ir prognozės.

Norėdami pakeisti žemėlapį: spustelėkite ant žalios mygtukų su juodo kryžiaus žemyn,; žalią mygtuką su brūkšneliu, jei norite nutolinti; arba žalių rodyklių gretimoms žemėlapius.


METAR-TAF: